Time;durP1;ratioP1;P1;durP2;ratioP2;P2;SDS_P1;SDS_P2;PMS_P1;PMS_P2;Temp;Humidity;BMP_temperature;BMP_pressure;BME280_temperature;BME280_humidity;BME280_pressure;Samples;Min_cycle;Max_cycle;Signal;HPM_P1;HPM_P2
2023/03/12 00:02:02;;;;;;;8.48;4.80;;;1.50;99.90;;;-144.05;53.76;57061.22;5012591;28;20055;-78
2023/03/12 00:04:28;;;;;;;9.15;4.68;;;1.50;99.90;;;-144.05;53.47;57099.47;5027379;28;20049;-79
2023/03/12 00:06:54;;;;;;;13.63;5.22;;;1.50;99.90;;;-144.05;53.37;57082.47;5012169;28;20037;-76
2023/03/12 00:09:20;;;;;;;12.20;5.07;;;1.50;99.90;;;-144.05;53.40;57073.97;5026465;28;20026;-76
2023/03/12 00:11:46;;;;;;;7.88;4.18;;;1.40;99.90;;;-144.05;53.28;57063.34;5011099;28;20030;-76
2023/03/12 00:14:12;;;;;;;8.77;3.97;;;1.40;99.90;;;-144.05;53.47;57103.72;5023329;28;20090;-77
2023/03/12 00:16:37;;;;;;;10.02;4.57;;;1.50;99.90;;;-144.05;52.69;57101.59;5033764;28;20034;-77
2023/03/12 00:19:03;;;;;;;14.65;5.00;;;1.50;99.90;;;-144.05;53.13;57084.59;5049451;28;20033;-76
2023/03/12 00:21:29;;;;;;;8.07;4.05;;;1.50;99.90;;;-144.05;53.08;57103.72;5034511;28;20060;-76
2023/03/12 00:23:55;;;;;;;8.25;4.07;;;1.50;99.90;;;-144.05;52.68;57073.97;5035270;28;20045;-75
2023/03/12 00:26:21;;;;;;;9.82;4.05;;;1.50;99.90;;;-144.05;52.23;57097.34;5032462;28;20093;-78
2023/03/12 00:28:49;;;;;;;6.60;3.50;;;1.50;99.90;;;-144.05;52.33;57073.97;5015290;28;20034;-79
2023/03/12 00:31:23;;;;;;;9.13;3.75;;;1.50;99.90;;;-144.05;52.20;57069.72;5029730;28;20038;-77
2023/03/12 00:33:49;;;;;;;10.10;3.78;;;1.60;99.90;;;-144.05;52.09;57073.97;5015769;28;20080;-77
2023/03/12 00:36:20;;;;;;;6.28;3.25;;;1.50;99.90;;;-144.05;52.36;57095.22;5031193;28;20453;-77
2023/03/12 00:38:46;;;;;;;8.75;2.90;;;1.50;99.90;;;-144.05;52.22;57061.22;5015013;28;20034;-79
2023/03/12 00:41:12;;;;;;;7.28;3.92;;;1.50;99.90;;;-144.05;52.41;57084.59;5015587;28;20060;-77
2023/03/12 00:43:38;;;;;;;6.88;3.53;;;1.50;99.90;;;-144.05;52.46;57088.84;5015070;28;20034;-78
2023/03/12 00:46:04;;;;;;;8.00;4.03;;;1.40;99.90;;;-144.05;52.48;57071.84;5015953;28;20060;-78
2023/03/12 00:48:30;;;;;;;6.07;3.25;;;1.40;99.90;;;-144.05;51.95;57061.22;5013199;28;20029;-76
2023/03/12 00:50:56;;;;;;;7.55;3.15;;;1.40;99.90;;;-144.05;52.37;57084.59;5037560;28;20026;-78
2023/03/12 00:53:22;;;;;;;9.23;3.58;;;1.50;99.90;;;-144.05;52.29;57082.47;5019994;28;20052;-77
2023/03/12 00:55:48;;;;;;;9.63;3.67;;;1.50;99.90;;;-144.05;52.21;57076.09;5020723;28;20421;-78
2023/03/12 00:58:14;;;;;;;9.45;3.33;;;1.50;99.90;;;-144.05;52.16;57065.47;5022564;28;20323;-77
2023/03/12 01:00:40;;;;;;;7.63;3.15;;;1.50;99.90;;;-144.05;52.16;57059.09;5025297;28;20068;-76
2023/03/12 01:03:06;;;;;;;8.98;3.38;;;1.60;99.90;;;-144.05;51.90;57076.09;5021126;28;20025;-78
2023/03/12 01:05:36;;;;;;;7.88;3.40;;;1.60;99.90;;;-144.05;51.71;57044.25;5016283;28;20033;-77
2023/03/12 01:08:04;;;;;;;6.78;3.08;;;1.70;99.90;;;-144.05;51.88;57093.09;5014494;28;20029;-77
2023/03/12 01:10:30;;;;;;;8.25;3.00;;;1.70;99.90;;;-144.05;51.78;57080.34;5013037;28;20037;-77
2023/03/12 01:12:55;;;;;;;7.53;3.80;;;1.70;99.90;;;-144.05;51.23;57099.47;5012472;28;20054;-76
2023/03/12 01:15:21;;;;;;;8.05;3.53;;;1.70;99.90;;;-144.05;51.30;57065.47;5013415;28;20167;-75
2023/03/12 01:17:47;;;;;;;7.70;3.72;;;1.80;99.90;;;-144.05;50.95;57067.59;5014388;28;20033;-77
2023/03/12 01:20:13;;;;;;;6.80;3.50;;;1.70;99.90;;;-144.05;51.36;57082.47;5014770;28;20489;-76
2023/03/12 01:22:39;;;;;;;7.50;3.22;;;1.70;99.90;;;-144.05;50.92;57063.34;5014680;28;20106;-77
2023/03/12 01:25:07;;;;;;;9.60;3.53;;;1.70;99.90;;;-144.05;51.38;57088.84;5014669;28;20044;-76
2023/03/12 01:27:33;;;;;;;9.18;3.25;;;1.70;99.90;;;-144.05;51.16;57061.22;5014169;28;20033;-76
2023/03/12 01:29:59;;;;;;;5.10;2.97;;;1.60;99.90;;;-144.05;51.62;57069.72;5013094;28;20553;-77
2023/03/12 01:32:25;;;;;;;6.32;3.20;;;1.60;99.90;;;-144.05;51.69;57088.84;5012292;28;20533;-77
2023/03/12 01:34:50;;;;;;;9.18;3.40;;;1.60;99.90;;;-144.05;51.30;57069.72;5014650;28;20132;-77
2023/03/12 01:37:16;;;;;;;6.28;2.67;;;1.60;99.90;;;-144.05;51.19;57061.22;5014611;28;20026;-77
2023/03/12 01:39:42;;;;;;;8.30;2.92;;;1.60;99.90;;;-144.05;50.95;57056.97;5028470;28;20108;-76
2023/03/12 01:42:08;;;;;;;6.85;3.10;;;1.60;99.90;;;-144.05;51.00;57069.72;5013634;28;20085;-76
2023/03/12 01:45:02;;;;;;;6.55;2.72;;;1.70;99.90;;;-144.05;50.43;57090.97;5013606;28;20034;-77
2023/03/12 01:47:32;;;;;;;6.72;2.78;;;1.70;99.90;;;-144.05;50.60;57067.59;5013464;28;20041;-77
2023/03/12 01:50:00;;;;;;;6.10;2.80;;;1.70;99.90;;;-144.05;50.38;57073.97;5013094;28;20133;-75
2023/03/12 01:52:36;;;;;;;8.68;3.10;;;1.80;99.90;;;-144.05;50.49;57063.34;5014157;28;20025;-77
2023/03/12 01:55:11;;;;;;;8.90;3.00;;;1.90;99.90;;;-144.05;49.99;57044.25;5014455;28;20128;-76
2023/03/12 01:57:51;;;;;;;4.72;2.40;;;1.90;99.90;;;-144.05;49.73;57073.97;5034033;28;20081;-76
2023/03/12 02:00:24;;;;;;;5.82;2.60;;;1.90;99.90;;;-144.05;49.79;57082.47;5034379;28;20078;-75
2023/03/12 02:02:59;;;;;;;4.57;2.72;;;1.90;99.90;;;-144.05;49.87;57107.97;5034285;28;20030;-76
2023/03/12 02:05:42;;;;;;;7.60;2.67;;;2.00;99.90;;;-144.05;49.65;57063.34;5028332;28;20044;-78
2023/03/12 02:08:15;;;;;;;5.82;3.10;;;2.00;99.90;;;-144.05;50.32;57090.97;5013519;28;20477;-78
2023/03/12 02:10:41;;;;;;;5.57;3.28;;;2.00;99.90;;;-144.05;49.59;57059.09;5014809;28;20030;-78
2023/03/12 02:13:07;;;;;;;5.60;2.47;;;2.00;99.90;;;-144.05;49.38;57067.59;5014298;28;20103;-77
2023/03/12 02:15:38;;;;;;;6.32;2.40;;;2.00;99.90;;;-144.05;49.06;57071.84;5013232;28;20145;-76
2023/03/12 02:18:08;;;;;;;7.57;2.65;;;2.10;99.90;;;-144.05;49.74;57067.59;5014005;28;20432;-79
2023/03/12 02:21:09;;;;;;;6.85;2.25;;;2.10;99.90;;;-144.05;49.43;57050.63;5014616;28;20112;-77
2023/03/12 02:24:01;;;;;;;4.53;2.95;;;2.10;99.90;;;-144.05;49.69;57080.34;5013239;28;20033;-77
2023/03/12 02:26:30;;;;;;;7.78;2.83;;;2.10;99.90;;;-144.05;49.50;57044.25;5028172;28;20109;-77
2023/03/12 02:28:59;;;;;;;6.22;2.65;;;2.20;99.90;;;-144.05;49.89;57071.84;5013516;28;20671;-78
2023/03/12 02:31:37;;;;;;;6.53;2.35;;;2.20;99.90;;;-144.05;49.69;57065.47;5013491;28;20034;-77
2023/03/12 02:34:03;;;;;;;5.38;2.67;;;2.10;99.90;;;-144.05;49.55;57056.97;5014042;28;20054;-78
2023/03/12 02:36:29;;;;;;;9.10;2.75;;;2.20;99.90;;;-144.05;49.18;57084.59;5012615;28;20033;-77
2023/03/12 02:38:56;;;;;;;8.70;2.40;;;2.20;99.90;;;-144.05;49.79;57069.72;5013517;28;20088;-77
2023/03/12 02:41:40;;;;;;;4.93;2.33;;;2.20;99.90;;;-144.05;49.40;57073.97;5013464;28;20034;-78
2023/03/12 02:44:25;;;;;;;6.63;2.67;;;2.20;99.90;;;-144.05;49.33;57069.72;5014311;28;20029;-77
2023/03/12 02:46:59;;;;;;;7.15;2.92;;;2.20;99.90;;;-144.05;49.21;57056.97;5012793;28;20029;-77
2023/03/12 02:49:32;;;;;;;6.35;2.33;;;2.20;99.90;;;-144.05;49.16;57059.09;5013516;28;20489;-78
2023/03/12 02:51:58;;;;;;;6.20;2.42;;;2.20;99.90;;;-144.05;48.86;57056.97;5011617;28;20033;-77
2023/03/12 02:54:26;;;;;;;6.07;1.88;;;2.20;99.90;;;-144.05;49.11;57069.72;5013603;28;20121;-77
2023/03/12 02:56:53;;;;;;;3.88;2.17;;;2.20;99.90;;;-144.05;48.89;57061.22;5012333;28;20034;-77
2023/03/12 02:59:21;;;;;;;5.90;3.45;;;2.20;99.90;;;-144.05;48.90;57105.84;5011439;28;20072;-75
2023/03/12 03:01:55;;;;;;;4.28;2.00;;;2.20;99.90;;;-144.05;48.98;57061.22;5011671;28;20026;-76
2023/03/12 03:04:22;;;;;;;7.55;2.22;;;2.20;99.90;;;-144.05;48.87;57099.47;5013418;28;20034;-76
2023/03/12 03:06:49;;;;;;;8.23;2.55;;;2.20;99.90;;;-144.05;49.21;57067.59;5013158;28;20481;-78
2023/03/12 03:09:16;;;;;;;6.38;2.72;;;2.20;99.90;;;-144.05;49.16;57050.63;5011456;28;20053;-77
2023/03/12 03:11:42;;;;;;;5.30;2.00;;;2.20;99.90;;;-144.05;49.22;57069.72;5012637;28;20129;-77
2023/03/12 03:14:09;;;;;;;8.20;2.50;;;2.10;99.90;;;-144.05;49.30;57080.34;5012542;28;20076;-77
2023/03/12 03:16:35;;;;;;;7.05;2.72;;;2.10;99.90;;;-144.05;49.89;57056.97;5028236;28;20045;-77
2023/03/12 03:19:01;;;;;;;6.30;2.00;;;2.10;99.90;;;-144.05;49.47;57086.72;5010807;28;20033;-77
2023/03/12 03:21:27;;;;;;;6.85;2.45;;;2.20;99.90;;;-144.05;49.18;57042.13;5012980;28;20046;-77
2023/03/12 03:23:52;;;;;;;8.75;2.05;;;2.20;99.90;;;-144.05;48.83;57078.22;5035512;22;20068;-78
2023/03/12 03:26:22;;;;;;;8.27;1.95;;;2.20;99.90;;;-144.05;49.26;57050.63;5032777;28;20067;-77
2023/03/12 03:28:50;;;;;;;4.70;1.98;;;2.20;99.90;;;-144.05;49.07;57071.84;5033624;28;20385;-77
2023/03/12 03:31:16;;;;;;;8.23;2.40;;;2.10;99.90;;;-144.05;49.28;57063.34;5033293;28;20033;-78
2023/03/12 03:33:43;;;;;;;7.40;2.50;;;2.10;99.90;;;-144.05;49.63;57073.97;5041018;28;20044;-77
2023/03/12 03:36:13;;;;;;;5.60;2.03;;;2.10;99.90;;;-144.05;49.70;57050.63;5055323;28;20033;-80
2023/03/12 03:38:40;;;;;;;5.15;2.22;;;2.10;99.90;;;-144.05;49.26;57061.22;5055570;28;20093;-78
2023/03/12 03:41:06;;;;;;;5.53;2.33;;;2.10;99.90;;;-144.05;49.80;57050.63;5053995;28;20028;-78
2023/03/12 03:43:32;;;;;;;5.65;1.85;;;2.20;99.90;;;-144.05;49.42;57059.09;5055434;28;20091;-78
2023/03/12 03:46:04;;;;;;;5.57;2.10;;;2.20;99.90;;;-144.05;49.46;57050.63;5054909;28;20056;-77
2023/03/12 03:48:31;;;;;;;4.68;1.55;;;2.20;99.90;;;-144.05;49.53;57088.84;5058208;28;20029;-79
2023/03/12 03:51:07;;;;;;;3.63;1.90;;;2.30;99.90;;;-144.05;48.97;57071.84;5059736;28;20028;-77
2023/03/12 03:53:34;;;;;;;5.50;1.83;;;2.30;99.90;;;-144.05;49.22;57065.47;5060126;28;20036;-78
2023/03/12 03:56:14;;;;;;;7.75;1.90;;;2.30;99.90;;;-144.05;48.94;57080.34;5058906;28;20025;-78
2023/03/12 03:58:40;;;;;;;5.70;2.03;;;2.30;99.90;;;-144.05;49.29;57052.75;5056808;28;20031;-79
2023/03/12 04:01:06;;;;;;;4.57;1.80;;;2.30;99.90;;;-144.05;49.31;57040.00;5058683;28;20395;-79
2023/03/12 04:03:33;;;;;;;4.35;1.90;;;2.30;99.90;;;-144.05;49.44;57088.84;5059214;28;20041;-78
2023/03/12 04:06:04;;;;;;;5.90;2.00;;;2.40;99.90;;;-144.05;49.42;57063.34;5059623;28;20036;-78
2023/03/12 04:08:34;;;;;;;3.50;1.80;;;2.30;99.90;;;-144.05;49.26;57046.38;5058226;28;20093;-78
2023/03/12 04:11:17;;;;;;;5.13;1.88;;;2.40;99.90;;;-144.05;49.10;57076.09;5058332;28;20017;-79
2023/03/12 04:13:44;;;;;;;4.55;1.77;;;2.50;99.90;;;-144.05;48.81;57059.09;5058059;28;20024;-77
2023/03/12 04:16:12;;;;;;;3.05;1.80;;;2.50;99.90;;;-144.05;48.66;57056.97;5058526;28;20488;-78
2023/03/12 04:18:39;;;;;;;7.20;1.73;;;2.50;99.90;;;-144.05;48.66;57054.88;5057321;28;20029;-79
2023/03/12 04:21:10;;;;;;;5.97;1.70;;;2.50;99.90;;;-144.05;48.74;57040.00;5058201;28;20043;-76
2023/03/12 04:23:37;;;;;;;3.55;1.58;;;2.60;99.90;;;-144.05;48.64;57056.97;5059238;28;20048;-78
2023/03/12 04:26:05;;;;;;;6.50;1.65;;;2.60;99.90;;;-144.05;48.49;57071.84;5057078;28;20040;-78
2023/03/12 04:28:33;;;;;;;7.07;2.00;;;2.60;99.90;;;-144.05;48.13;57056.97;5059017;28;20040;-76
2023/03/12 04:31:05;;;;;;;7.22;2.15;;;2.60;99.90;;;-144.05;48.80;57061.22;5059645;28;20025;-78
2023/03/12 04:33:36;;;;;;;6.05;2.00;;;2.60;99.90;;;-144.05;48.59;57061.22;5058252;28;20040;-78
2023/03/12 04:36:04;;;;;;;7.78;2.15;;;2.60;99.90;;;-144.05;48.80;57056.97;5058070;28;20465;-78
2023/03/12 04:38:30;;;;;;;4.57;1.80;;;2.60;99.90;;;-144.05;48.84;57050.63;5058305;28;20396;-78
2023/03/12 04:41:13;;;;;;;7.05;2.40;;;2.60;99.90;;;-144.05;48.74;57052.75;5058223;28;20104;-79
2023/03/12 04:43:39;;;;;;;7.25;1.70;;;2.60;99.90;;;-144.05;48.51;57059.09;5056730;28;20043;-78
2023/03/12 04:46:07;;;;;;;5.38;2.00;;;2.60;99.90;;;-144.05;48.59;57065.47;5057048;28;20091;-78
2023/03/12 04:48:34;;;;;;;7.20;2.00;;;2.60;99.90;;;-144.05;48.69;57046.38;5058907;28;20033;-78
2023/03/12 04:51:02;;;;;;;5.07;1.70;;;2.60;99.90;;;-144.05;48.89;57052.75;5056672;28;20029;-76
2023/03/12 04:53:28;;;;;;;5.78;2.03;;;2.70;99.90;;;-144.05;48.68;57050.63;5055292;28;20025;-76
2023/03/12 04:55:54;;;;;;;3.83;2.17;;;2.70;99.90;;;-144.05;49.13;57040.00;5057592;28;20029;-78
2023/03/12 04:58:21;;;;;;;6.82;1.95;;;2.70;99.90;;;-144.05;49.34;57056.97;5056734;28;20040;-77
2023/03/12 05:00:49;;;;;;;7.25;1.90;;;2.70;99.90;;;-144.05;48.88;57063.34;5057809;28;20126;-77
2023/03/12 05:03:17;;;;;;;4.78;1.80;;;2.70;99.90;;;-144.05;48.53;57067.59;5058528;28;20032;-78
2023/03/12 05:05:43;;;;;;;4.65;1.60;;;2.70;99.90;;;-144.05;48.83;57063.34;5057129;28;20056;-77
2023/03/12 05:08:09;;;;;;;5.60;2.05;;;2.70;99.90;;;-144.05;48.70;57084.59;5064517;28;20025;-77
2023/03/12 05:10:35;;;;;;;7.93;2.25;;;2.60;99.90;;;-144.05;48.87;57071.84;5065845;28;20115;-76
2023/03/12 05:13:01;;;;;;;4.65;1.73;;;2.70;99.90;;;-144.05;48.92;57073.97;5060225;28;20025;-77
2023/03/12 05:15:27;;;;;;;7.03;1.92;;;2.70;99.90;;;-144.05;48.84;57061.22;5054255;28;20044;-77
2023/03/12 05:17:53;;;;;;;4.97;1.90;;;2.70;99.90;;;-144.05;48.29;57069.72;5054575;28;20394;-77
2023/03/12 05:20:19;;;;;;;8.57;1.85;;;2.70;99.90;;;-144.05;48.45;57073.97;5053723;28;20039;-75
2023/03/12 05:22:45;;;;;;;4.95;1.88;;;2.70;99.90;;;-144.05;48.59;57046.38;5053632;28;20409;-76
2023/03/12 05:25:11;;;;;;;6.32;1.67;;;2.80;99.90;;;-144.05;48.44;57042.13;5053203;28;20044;-76
2023/03/12 05:27:37;;;;;;;6.75;2.03;;;2.70;99.90;;;-144.05;48.50;57033.63;5053856;28;20037;-77
2023/03/12 05:30:06;;;;;;;4.57;1.33;;;2.80;99.90;;;-144.05;48.14;57029.38;5053653;28;20033;-77
2023/03/12 05:32:32;;;;;;;6.43;1.85;;;2.80;99.90;;;-144.05;48.08;57078.22;5053982;28;20439;-76
2023/03/12 05:34:58;;;;;;;8.05;1.90;;;2.80;99.90;;;-144.05;48.17;57035.75;5052491;28;20025;-77
2023/03/12 05:37:23;;;;;;;5.50;2.00;;;2.90;99.90;;;-144.05;47.54;57031.50;5055090;28;20036;-76
2023/03/12 05:39:49;;;;;;;6.80;1.75;;;2.90;99.90;;;-144.05;47.77;57065.47;5055938;28;20424;-76
2023/03/12 05:42:15;;;;;;;10.23;2.10;;;2.90;99.90;;;-144.05;47.58;57040.00;5055043;28;20036;-77
2023/03/12 05:44:42;;;;;;;5.72;1.75;;;2.90;99.90;;;-144.05;48.18;57044.25;5056990;28;20139;-78
2023/03/12 05:47:09;;;;;;;9.43;1.65;;;3.00;99.90;;;-144.05;48.06;57048.50;5056801;28;20060;-78
2023/03/12 05:49:35;;;;;;;3.33;1.50;;;3.00;99.90;;;-144.05;47.96;57046.38;5055762;28;20040;-78
2023/03/12 05:52:01;;;;;;;8.70;1.95;;;3.00;99.90;;;-144.05;47.50;57033.63;5055839;28;20025;-78
2023/03/12 05:54:27;;;;;;;4.43;1.15;;;3.00;99.90;;;-144.05;47.67;57065.47;5055261;28;20434;-78
2023/03/12 05:56:55;;;;;;;7.10;2.05;;;3.00;99.90;;;-144.05;47.50;57056.97;5055404;28;20092;-77
2023/03/12 05:59:20;;;;;;;7.47;2.72;;;2.90;99.90;;;-144.05;47.64;57052.75;5056544;28;20028;-77
2023/03/12 06:01:46;;;;;;;4.72;1.70;;;3.00;99.90;;;-144.05;47.66;57050.63;5056622;28;20060;-78
2023/03/12 06:04:12;;;;;;;8.02;2.00;;;3.00;99.90;;;-144.05;47.68;57048.50;5056253;28;20029;-77
2023/03/12 06:06:38;;;;;;;4.90;1.85;;;2.90;99.90;;;-144.05;47.56;57052.75;5055840;28;20044;-78
2023/03/12 06:09:05;;;;;;;6.15;1.85;;;3.00;99.90;;;-144.05;47.82;57056.97;5055778;28;20366;-78
2023/03/12 06:11:34;;;;;;;4.45;1.73;;;3.00;99.90;;;-144.05;47.67;57018.75;5053991;28;20051;-77
2023/03/12 06:14:00;;;;;;;4.93;1.50;;;3.00;99.90;;;-144.05;47.67;57031.50;5055666;28;20602;-78
2023/03/12 06:16:28;;;;;;;11.55;1.85;;;3.00;99.90;;;-144.05;47.53;57048.50;5054081;28;20028;-78
2023/03/12 06:18:58;;;;;;;8.65;1.77;;;3.00;99.90;;;-144.05;47.70;57054.88;5054420;28;20037;-78
2023/03/12 06:21:30;;;;;;;4.38;1.63;;;3.00;99.90;;;-144.05;47.99;57044.25;5055618;28;20116;-78
2023/03/12 06:23:57;;;;;;;7.38;1.80;;;3.00;99.90;;;-144.05;48.02;57029.38;5055188;28;20033;-78
2023/03/12 06:26:23;;;;;;;6.43;1.30;;;3.00;99.90;;;-144.05;48.45;57018.75;5055882;28;20025;-76
2023/03/12 06:28:51;;;;;;;5.20;1.48;;;3.00;99.90;;;-144.05;48.52;57033.63;5054896;28;20036;-77
2023/03/12 06:31:18;;;;;;;5.95;1.77;;;3.10;99.90;;;-144.05;48.09;57056.97;5055418;28;20101;-78
2023/03/12 06:33:44;;;;;;;9.07;1.65;;;3.10;99.90;;;-144.05;48.56;57071.84;5055309;28;20112;-77
2023/03/12 06:36:11;;;;;;;4.97;1.88;;;3.10;99.90;;;-144.05;48.12;57040.00;5053497;28;20079;-78
2023/03/12 06:38:38;;;;;;;5.70;1.65;;;3.10;99.90;;;-144.05;48.36;57040.00;5053038;28;20032;-78
2023/03/12 06:41:09;;;;;;;10.07;1.83;;;3.20;99.90;;;-144.05;48.08;57031.50;5055488;28;20071;-78
2023/03/12 06:43:37;;;;;;;5.53;1.70;;;3.20;99.90;;;-144.05;48.42;57029.38;5054556;28;20145;-78
2023/03/12 06:46:06;;;;;;;4.00;1.98;;;3.20;99.90;;;-144.05;48.68;57035.75;5052890;28;20032;-77
2023/03/12 06:48:35;;;;;;;3.95;1.55;;;3.30;99.90;;;-144.05;48.79;57044.25;5055930;28;20029;-77
2023/03/12 06:51:09;;;;;;;4.80;1.60;;;3.30;99.90;;;-144.05;49.95;57046.38;5057249;28;20060;-74
2023/03/12 06:53:35;;;;;;;4.97;1.60;;;3.30;99.90;;;-144.05;49.88;57025.13;5054169;28;20029;-76
2023/03/12 06:56:03;;;;;;;6.75;1.85;;;3.30;99.90;;;-144.05;50.02;57052.75;5054613;28;20045;-76
2023/03/12 06:58:29;;;;;;;6.95;1.77;;;3.30;99.90;;;-144.05;49.73;57044.25;5053968;28;20029;-76
2023/03/12 07:00:55;;;;;;;4.38;1.50;;;3.40;99.90;;;-144.05;50.16;57048.50;5053716;28;20047;-78
2023/03/12 07:03:21;;;;;;;4.22;2.00;;;3.40;99.90;;;-144.05;50.66;57042.13;5053545;28;20066;-77
2023/03/12 07:05:50;;;;;;;5.10;2.08;;;3.50;99.90;;;-144.05;51.05;57023.00;5053880;28;20029;-78
2023/03/12 07:08:17;;;;;;;8.05;2.85;;;3.50;99.90;;;-144.05;50.80;57029.38;5055139;28;20029;-76
2023/03/12 07:10:45;;;;;;;1.90;1.45;;;3.50;99.90;;;-144.05;50.92;57044.25;5055154;28;20025;-77
2023/03/12 07:13:11;;;;;;;6.43;2.22;;;3.50;99.90;;;-144.05;51.93;57023.00;5052059;28;20031;-78
2023/03/12 07:15:37;;;;;;;4.70;2.20;;;3.50;99.90;;;-144.05;52.53;57031.50;5053966;28;20480;-77
2023/03/12 07:18:12;;;;;;;3.75;2.10;;;3.60;99.90;;;-144.05;53.38;57018.75;5050178;28;20033;-77
2023/03/12 07:20:42;;;;;;;7.80;2.40;;;3.50;99.90;;;-144.05;53.34;57027.25;5054282;28;20085;-78
2023/03/12 07:23:10;;;;;;;3.47;2.40;;;3.50;99.90;;;-144.05;53.91;57044.25;5058146;28;20029;-77
2023/03/12 07:25:43;;;;;;;3.67;1.75;;;3.50;99.90;;;-144.05;54.33;57061.22;5058605;28;20437;-78
2023/03/12 07:40:10;;;;;;;4.85;2.17;;;3.60;99.90;;;-144.05;57.13;57044.25;5057315;28;20036;-78
2023/03/12 07:42:35;;;;;;;6.95;2.67;;;3.60;99.90;;;-144.05;57.98;57035.75;5057200;28;20055;-77
2023/03/12 07:45:03;;;;;;;9.23;3.13;;;3.50;99.90;;;-144.05;58.65;57054.88;5056834;28;20045;-78
2023/03/12 07:47:28;;;;;;;8.07;2.55;;;3.50;99.90;;;-144.05;61.00;57056.97;5058772;28;20040;-78
2023/03/12 07:49:54;;;;;;;6.45;2.55;;;3.40;99.90;;;-144.05;61.01;57052.75;5057363;28;20469;-78
2023/03/12 07:52:20;;;;;;;10.70;2.95;;;3.40;99.90;;;-144.05;62.69;57050.63;5057336;28;20028;-78
2023/03/12 07:54:46;;;;;;;7.55;2.80;;;3.30;99.90;;;-144.05;64.19;57048.50;5057562;28;20025;-77
2023/03/12 07:57:12;;;;;;;5.35;2.80;;;3.40;99.90;;;-144.05;64.99;57033.63;5056122;28;20473;-78
2023/03/12 07:59:38;;;;;;;5.63;3.00;;;3.30;99.90;;;-144.05;66.76;57056.97;5054285;28;20056;-77
2023/03/12 08:02:04;;;;;;;6.43;3.70;;;3.40;99.90;;;-144.05;65.73;57056.97;5055146;28;20476;-78
2023/03/12 08:04:30;;;;;;;6.38;3.40;;;3.40;99.90;;;-144.05;65.99;57027.25;5056581;28;20076;-78
2023/03/12 08:06:56;;;;;;;7.03;2.50;;;3.40;99.90;;;-144.05;66.05;57035.75;5055938;28;20033;-77
2023/03/12 08:09:21;;;;;;;5.18;2.75;;;3.40;99.90;;;-144.05;66.90;57044.25;5054606;28;20086;-77
2023/03/12 08:11:47;;;;;;;6.57;3.10;;;3.40;99.90;;;-144.05;67.07;57031.50;5055463;28;20037;-76
2023/03/12 08:14:13;;;;;;;8.52;3.20;;;3.50;99.90;;;-144.05;68.27;57033.63;5056801;28;20025;-78
2023/03/12 08:16:39;;;;;;;8.30;3.55;;;3.50;99.90;;;-144.05;68.00;57025.13;5058028;28;20025;-77
2023/03/12 08:19:05;;;;;;;6.05;3.55;;;3.50;99.90;;;-144.05;67.90;57016.63;5056551;28;20492;-77
2023/03/12 08:21:30;;;;;;;9.18;2.85;;;3.50;99.90;;;-144.05;69.13;57029.38;5055403;28;20032;-77
2023/03/12 08:23:56;;;;;;;10.07;3.58;;;3.50;99.90;;;-144.05;68.89;57023.00;5053328;28;20416;-77
2023/03/12 08:26:22;;;;;;;6.65;2.80;;;3.50;99.90;;;-144.05;68.68;57018.75;5054357;28;20036;-76
2023/03/12 08:28:48;;;;;;;5.93;3.42;;;3.60;99.90;;;-144.05;69.92;57040.00;5054022;28;20033;-77
2023/03/12 08:31:14;;;;;;;6.05;3.50;;;3.60;99.90;;;-144.05;69.26;57031.50;5055239;28;20481;-76
2023/03/12 08:33:42;;;;;;;10.30;4.00;;;3.70;99.90;;;-144.05;70.08;57020.88;5055201;28;20029;-77
2023/03/12 08:36:09;;;;;;;7.38;3.47;;;3.70;99.90;;;-144.05;70.13;57046.38;5056259;28;20021;-77
2023/03/12 08:38:35;;;;;;;5.28;3.42;;;3.80;99.90;;;-144.05;70.46;57042.13;5053610;28;20469;-77
2023/03/12 08:41:02;;;;;;;12.48;3.83;;;3.90;99.90;;;-144.05;69.73;57006.00;5052935;28;20040;-76
2023/03/12 08:43:28;;;;;;;12.20;5.28;;;4.00;99.90;;;-144.05;70.30;57003.88;5056371;28;20028;-78
2023/03/12 08:46:00;;;;;;;6.72;4.00;;;4.00;99.90;;;-144.05;70.49;57025.13;5055791;28;20025;-77
2023/03/12 08:48:30;;;;;;;9.35;3.33;;;4.10;99.90;;;-144.05;70.73;57048.50;5054905;28;20021;-77
2023/03/12 08:50:59;;;;;;;9.60;4.25;;;4.10;99.90;;;-144.05;69.76;57031.50;5054022;28;20041;-79
2023/03/12 08:53:26;;;;;;;8.57;3.70;;;4.20;99.90;;;-144.05;69.49;57029.38;5053577;28;20036;-77
2023/03/12 08:55:55;;;;;;;7.18;3.83;;;4.30;99.90;;;-144.05;69.77;57025.13;5054543;28;20032;-77
2023/03/12 08:58:23;;;;;;;10.60;4.57;;;4.40;99.90;;;-144.05;69.13;57044.25;5052928;28;20028;-77
2023/03/12 09:00:51;;;;;;;6.68;3.50;;;4.40;99.90;;;-144.05;69.72;57010.25;5054094;28;20365;-77
2023/03/12 09:03:17;;;;;;;8.95;3.53;;;4.50;99.90;;;-144.05;69.63;56997.50;5054687;28;20028;-77
2023/03/12 09:05:44;;;;;;;8.05;3.15;;;4.60;99.90;;;-144.05;70.29;57020.88;5053093;28;20021;-77
2023/03/12 09:08:11;;;;;;;7.07;3.40;;;4.50;99.90;;;-144.05;69.92;57023.00;5054258;28;20021;-77
2023/03/12 09:10:38;;;;;;;9.77;3.72;;;4.60;99.90;;;-144.05;69.32;57006.00;5055458;28;20029;-78
2023/03/12 09:13:04;;;;;;;8.15;3.50;;;4.60;99.90;;;-144.05;70.12;57050.63;5054924;28;20025;-77
2023/03/12 09:15:31;;;;;;;9.00;3.38;;;4.60;99.90;;;-144.05;69.96;57029.38;5065666;28;20036;-76
2023/03/12 09:17:57;;;;;;;5.82;3.65;;;4.70;99.90;;;-144.05;69.97;57003.88;5067161;28;20017;-75
2023/03/12 09:20:24;;;;;;;11.15;3.20;;;4.80;99.90;;;-144.05;69.64;57040.00;5058711;28;20094;-77
2023/03/12 09:22:51;;;;;;;6.50;3.20;;;5.00;99.90;;;-144.05;69.26;57020.88;5053456;28;20032;-77
2023/03/12 09:25:17;;;;;;;5.60;3.45;;;5.00;99.90;;;-144.05;70.46;57006.00;5053870;28;20033;-77
2023/03/12 09:27:46;;;;;;;7.97;3.20;;;5.10;99.90;;;-144.05;70.09;57014.50;5053599;28;20044;-78
2023/03/12 09:30:18;;;;;;;6.13;3.05;;;5.10;99.90;;;-144.05;70.32;56986.91;5053237;28;20074;-76
2023/03/12 09:32:45;;;;;;;7.38;3.70;;;5.20;99.90;;;-144.05;70.46;57010.25;5052589;28;20517;-77
2023/03/12 09:35:15;;;;;;;8.77;3.17;;;5.10;99.90;;;-144.05;70.84;57014.50;5054054;28;20021;-78
2023/03/12 09:37:41;;;;;;;9.38;3.50;;;5.10;99.90;;;-144.05;71.05;57014.50;5057008;28;20047;-79
2023/03/12 09:40:15;;;;;;;9.55;3.05;;;5.10;99.90;;;-144.05;70.12;56980.53;5052688;28;20123;-78
2023/03/12 09:43:06;;;;;;;7.22;3.35;;;5.20;99.90;;;-144.05;70.83;57018.75;5053591;28;20033;-77
2023/03/12 09:45:42;;;;;;;4.10;2.33;;;5.20;99.90;;;-144.05;70.48;57014.50;5054168;28;20029;-77
2023/03/12 09:48:31;;;;;;;8.02;3.35;;;5.20;99.90;;;-144.05;71.63;57014.50;5053622;28;20108;-76
2023/03/12 09:51:31;;;;;;;5.63;2.38;;;5.10;99.90;;;-144.05;72.07;57023.00;5054346;28;20035;-77
2023/03/12 09:54:04;;;;;;;4.97;2.63;;;5.10;99.90;;;-144.05;71.96;56999.63;5053084;28;20025;-77
2023/03/12 09:56:32;;;;;;;5.88;2.70;;;5.10;99.90;;;-144.05;71.49;57014.50;5053363;28;20472;-77
2023/03/12 09:58:59;;;;;;;5.50;2.97;;;5.20;99.90;;;-144.05;71.96;57018.75;5052987;28;20112;-77
2023/03/12 10:02:14;;;;;;;4.22;2.78;;;5.20;99.90;;;-144.05;72.46;57029.38;5052093;28;20064;-78
2023/03/12 10:05:04;;;;;;;6.32;3.00;;;5.20;99.90;;;-144.05;72.54;56991.13;5053081;28;20029;-77
2023/03/12 10:08:03;;;;;;;6.78;2.72;;;5.20;99.90;;;-144.05;73.57;57010.25;5053951;28;20559;-76
2023/03/12 10:10:51;;;;;;;4.53;2.40;;;5.20;99.90;;;-144.05;74.26;57010.25;5053546;28;20120;-75
2023/03/12 10:14:00;;;;;;;3.88;2.70;;;5.20;99.90;;;-144.05;74.31;57033.63;5051780;28;20083;-75
2023/03/12 10:17:06;;;;;;;6.25;2.92;;;5.20;99.90;;;-144.05;75.72;56984.78;5052130;28;20507;-77
2023/03/12 10:20:08;;;;;;;4.60;2.50;;;5.30;99.90;;;-144.05;76.42;56986.91;5051991;28;20400;-76
2023/03/12 10:23:31;;;;;;;5.35;2.13;;;5.30;99.90;;;-144.05;77.91;57006.00;5018110;28;20041;-75
2023/03/12 10:26:15;;;;;;;4.63;2.78;;;5.30;99.90;;;-144.05;80.27;57001.75;5016680;28;20120;-75
2023/03/12 10:29:26;;;;;;;4.15;2.60;;;5.30;99.90;;;-144.05;81.15;57023.00;5053679;28;20443;-74
2023/03/12 10:32:11;;;;;;;3.70;2.88;;;5.20;99.90;;;-144.05;82.17;57006.00;5046477;28;20040;-76
2023/03/12 10:34:58;;;;;;;4.63;2.95;;;5.20;99.90;;;-144.05;82.90;57003.88;5052760;28;20029;-76
2023/03/12 10:37:46;;;;;;;4.47;2.55;;;5.30;99.90;;;-144.05;82.95;57014.50;5052793;28;20110;-76